DAL845 KLAS-KDTW
Flight info
| Callsign | DAL845 |
|---|---|
| Flight time | N/A |
| Altitude | 35000 |
| Route | RATPK3 FRNCK MLF MTU CKW KUOCA KD75U KP87A GEP EAU GRB HOOTA RKCTY2 |
| Aircraft | A21N/M-SDE3FGHIRWY/LB1 |
Departure
| Time | 2026-04-30 20:34 |
|---|---|
| Airport | Harry Reid International Airport (KLAS) |
Arrival
| Time | N/A |
|---|---|
| Airport | Detroit Metropolitan Wayne County Airport (KDTW) |
| Time | Latitude | Longitude | Altitude | Speed | Heading |
|---|---|---|---|---|---|
| 2026-04-30 20:18 | 36.08140 | -115.13982 | 2085 ft | 0 kts | 132° |
| 2026-04-30 20:25 | 36.08144 | -115.13988 | 2086 ft | 2 kts | 136° |
| 2026-04-30 20:25 | 36.08156 | -115.14000 | 2086 ft | 2 kts | 136° |
| 2026-04-30 20:26 | 36.08177 | -115.14026 | 2086 ft | 2 kts | 136° |
| 2026-04-30 20:26 | 36.08189 | -115.14040 | 2086 ft | 0 kts | 136° |
| 2026-04-30 20:28 | 36.08137 | -115.14035 | 2087 ft | 6 kts | 229° |
| 2026-04-30 20:28 | 36.08053 | -115.14155 | 2093 ft | 12 kts | 228° |
| 2026-04-30 20:29 | 36.07795 | -115.14239 | 2101 ft | 17 kts | 198° |
| 2026-04-30 20:30 | 36.07780 | -115.14748 | 2117 ft | 33 kts | 275° |
| 2026-04-30 20:30 | 36.07803 | -115.15372 | 2138 ft | 17 kts | 270° |
| 2026-04-30 20:31 | 36.07804 | -115.15736 | 2152 ft | 26 kts | 270° |
| 2026-04-30 20:32 | 36.07720 | -115.16129 | 2166 ft | 11 kts | 179° |
| 2026-04-30 20:32 | 36.07640 | -115.16035 | 2166 ft | 3 kts | 89° |
| 2026-04-30 20:33 | 36.07645 | -115.15798 | 2157 ft | 67 kts | 86° |
| 2026-04-30 20:33 | 36.07655 | -115.13438 | 2161 ft | 191 kts | 88° |
| 2026-04-30 20:33 | 36.07653 | -115.11677 | 2449 ft | 217 kts | 89° |
| 2026-04-30 20:34 | 36.07571 | -115.07583 | 3068 ft | 253 kts | 94° |
| 2026-04-30 20:34 | 36.06931 | -115.03413 | 2937 ft | 252 kts | 100° |
| 2026-04-30 20:35 | 36.06559 | -115.01290 | 3500 ft | 254 kts | 99° |
| 2026-04-30 20:35 | 36.06206 | -114.99198 | 4207 ft | 250 kts | 99° |
| 2026-04-30 20:35 | 36.05535 | -114.95031 | 5401 ft | 251 kts | 98° |
| 2026-04-30 20:36 | 36.05188 | -114.92899 | 5934 ft | 254 kts | 101° |
| 2026-04-30 20:36 | 36.04367 | -114.90959 | 6398 ft | 266 kts | 132° |
| 2026-04-30 20:36 | 36.00946 | -114.89102 | 7434 ft | 275 kts | 162° |
| 2026-04-30 20:37 | 35.99065 | -114.88696 | 7907 ft | 280 kts | 184° |
| 2026-04-30 20:37 | 35.97225 | -114.89423 | 8386 ft | 280 kts | 216° |
| 2026-04-30 20:37 | 35.95768 | -114.90999 | 8816 ft | 284 kts | 226° |
| 2026-04-30 20:37 | 35.94312 | -114.92750 | 9056 ft | 297 kts | 225° |
| 2026-04-30 20:38 | 35.92810 | -114.94513 | 9386 ft | 305 kts | 225° |
| 2026-04-30 20:38 | 35.91342 | -114.96409 | 9856 ft | 305 kts | 238° |
| 2026-04-30 20:38 | 35.90505 | -114.98762 | 10312 ft | 302 kts | 261° |
| 2026-04-30 20:39 | 35.91214 | -115.03818 | 10742 ft | 312 kts | 305° |
| 2026-04-30 20:39 | 35.92693 | -115.05769 | 10939 ft | 316 kts | 326° |
| 2026-04-30 20:39 | 35.94694 | -115.06895 | 11246 ft | 318 kts | 348° |
| 2026-04-30 20:40 | 35.98953 | -115.06046 | 12048 ft | 322 kts | 30° |
| 2026-04-30 20:40 | 36.00805 | -115.04464 | 12470 ft | 324 kts | 33° |
| 2026-04-30 20:40 | 36.02646 | -115.02852 | 12894 ft | 325 kts | 33° |
| 2026-04-30 20:41 | 36.06214 | -114.99741 | 14389 ft | 303 kts | 33° |
| 2026-04-30 20:41 | 36.07893 | -114.98282 | 15148 ft | 292 kts | 32° |
| 2026-04-30 20:41 | 36.09510 | -114.96878 | 15856 ft | 282 kts | 32° |
| 2026-04-30 20:41 | 36.11114 | -114.95489 | 16319 ft | 281 kts | 32° |
| 2026-04-30 20:42 | 36.12717 | -114.94106 | 16718 ft | 289 kts | 32° |
| 2026-04-30 20:42 | 36.14408 | -114.92645 | 17056 ft | 301 kts | 32° |
| 2026-04-30 20:42 | 36.17987 | -114.89517 | 17579 ft | 330 kts | 35° |
| 2026-04-30 20:43 | 36.19779 | -114.87628 | 17829 ft | 346 kts | 41° |
| 2026-04-30 20:43 | 36.21440 | -114.85441 | 18069 ft | 360 kts | 47° |
| 2026-04-30 20:43 | 36.23083 | -114.83004 | 18314 ft | 374 kts | 48° |
| 2026-04-30 20:44 | 36.26459 | -114.77881 | 18766 ft | 398 kts | 48° |
| 2026-04-30 20:44 | 36.28244 | -114.75178 | 18982 ft | 410 kts | 48° |
| 2026-04-30 20:44 | 36.31942 | -114.69593 | 19393 ft | 431 kts | 47° |
| 2026-04-30 20:45 | 36.35869 | -114.63901 | 20221 ft | 437 kts | 43° |
| 2026-04-30 20:45 | 36.38041 | -114.61282 | 20687 ft | 437 kts | 39° |
| 2026-04-30 20:45 | 36.40369 | -114.58861 | 21131 ft | 438 kts | 35° |
| 2026-04-30 20:46 | 36.47672 | -114.51938 | 22403 ft | 443 kts | 34° |
| 2026-04-30 20:46 | 36.50098 | -114.49642 | 22800 ft | 445 kts | 34° |
| 2026-04-30 20:47 | 36.55118 | -114.45074 | 23576 ft | 448 kts | 30° |
| 2026-04-30 20:47 | 36.57717 | -114.43003 | 24042 ft | 447 kts | 28° |
| 2026-04-30 20:48 | 36.62968 | -114.38933 | 25045 ft | 444 kts | 28° |
| 2026-04-30 20:48 | 36.65596 | -114.36902 | 25453 ft | 444 kts | 28° |
| 2026-04-30 20:48 | 36.68224 | -114.34869 | 25852 ft | 444 kts | 28° |
| 2026-04-30 20:48 | 36.70857 | -114.32828 | 26232 ft | 445 kts | 28° |
| 2026-04-30 20:49 | 36.73449 | -114.30816 | 26601 ft | 445 kts | 28° |
| 2026-04-30 20:49 | 36.76072 | -114.28777 | 26979 ft | 445 kts | 28° |
| 2026-04-30 20:49 | 36.78706 | -114.26728 | 27352 ft | 445 kts | 28° |
| 2026-04-30 20:50 | 36.83947 | -114.22647 | 28042 ft | 446 kts | 28° |
| 2026-04-30 20:50 | 36.86583 | -114.20590 | 28388 ft | 446 kts | 28° |
| 2026-04-30 20:50 | 36.89191 | -114.18555 | 28715 ft | 446 kts | 28° |
| 2026-04-30 20:50 | 36.91819 | -114.16499 | 29050 ft | 446 kts | 28° |
| 2026-04-30 20:51 | 36.94463 | -114.14432 | 29370 ft | 447 kts | 28° |
| 2026-04-30 20:51 | 36.99701 | -114.10328 | 29973 ft | 448 kts | 28° |
| 2026-04-30 20:51 | 37.02336 | -114.08261 | 30284 ft | 448 kts | 28° |
| 2026-04-30 20:52 | 37.04970 | -114.06195 | 30609 ft | 447 kts | 28° |
| 2026-04-30 20:52 | 37.07593 | -114.04135 | 30928 ft | 447 kts | 28° |
| 2026-04-30 20:52 | 37.12880 | -113.99979 | 31546 ft | 446 kts | 28° |
| 2026-04-30 20:53 | 37.15496 | -113.97919 | 31867 ft | 445 kts | 28° |
| 2026-04-30 20:53 | 37.18127 | -113.95846 | 32170 ft | 444 kts | 28° |
| 2026-04-30 20:53 | 37.20728 | -113.93794 | 32442 ft | 444 kts | 28° |
| 2026-04-30 20:54 | 37.25928 | -113.89688 | 32994 ft | 443 kts | 27° |
| 2026-04-30 20:54 | 37.28533 | -113.87628 | 33234 ft | 443 kts | 27° |
| 2026-04-30 20:54 | 37.31155 | -113.85555 | 33443 ft | 444 kts | 27° |
| 2026-04-30 20:55 | 37.36365 | -113.81430 | 33797 ft | 446 kts | 27° |
| 2026-04-30 20:55 | 37.38995 | -113.79343 | 33973 ft | 447 kts | 27° |
| 2026-04-30 20:55 | 37.41613 | -113.77266 | 34144 ft | 448 kts | 27° |
| 2026-04-30 20:56 | 37.46892 | -113.73068 | 34473 ft | 450 kts | 27° |
| 2026-04-30 20:56 | 37.49553 | -113.70950 | 34647 ft | 451 kts | 27° |
| 2026-04-30 20:56 | 37.54844 | -113.66734 | 34950 ft | 453 kts | 27° |
| 2026-04-30 20:57 | 37.57512 | -113.64605 | 35080 ft | 454 kts | 27° |
| 2026-04-30 20:57 | 37.62817 | -113.60366 | 35106 ft | 454 kts | 27° |
| 2026-04-30 20:58 | 37.70835 | -113.53949 | 35113 ft | 456 kts | 27° |
| 2026-04-30 20:58 | 37.76169 | -113.49690 | 35114 ft | 456 kts | 27° |
| 2026-04-30 20:59 | 37.84198 | -113.43263 | 35123 ft | 456 kts | 27° |
| 2026-04-30 21:00 | 37.94914 | -113.34654 | 35123 ft | 457 kts | 27° |
| 2026-04-30 21:01 | 38.02944 | -113.28183 | 35121 ft | 458 kts | 27° |
| 2026-04-30 21:02 | 38.11012 | -113.21665 | 35122 ft | 459 kts | 27° |
| 2026-04-30 21:02 | 38.16382 | -113.17316 | 35117 ft | 457 kts | 26° |
| 2026-04-30 21:03 | 38.21752 | -113.12959 | 35122 ft | 458 kts | 26° |
| 2026-04-30 21:03 | 38.27113 | -113.08603 | 35128 ft | 460 kts | 26° |
| 2026-04-30 21:04 | 38.32398 | -113.04023 | 35125 ft | 463 kts | 31° |
| 2026-04-30 21:04 | 38.39596 | -112.95713 | 35111 ft | 472 kts | 41° |
| 2026-04-30 21:05 | 38.43848 | -112.89341 | 35117 ft | 475 kts | 44° |
| 2026-04-30 21:05 | 38.48036 | -112.82801 | 35127 ft | 476 kts | 45° |
| 2026-04-30 21:06 | 38.52205 | -112.76297 | 35128 ft | 476 kts | 44° |
| 2026-04-30 21:06 | 38.56395 | -112.69765 | 35133 ft | 475 kts | 44° |
| 2026-04-30 21:07 | 38.60561 | -112.63267 | 35139 ft | 475 kts | 44° |
| 2026-04-30 21:07 | 38.64743 | -112.56733 | 35136 ft | 475 kts | 44° |
| 2026-04-30 21:08 | 38.68902 | -112.50221 | 35140 ft | 476 kts | 44° |
| 2026-04-30 21:08 | 38.73084 | -112.43660 | 35137 ft | 476 kts | 44° |
| 2026-04-30 21:09 | 38.77272 | -112.37075 | 35141 ft | 478 kts | 44° |
| 2026-04-30 21:09 | 38.81457 | -112.30483 | 35138 ft | 478 kts | 44° |
| 2026-04-30 21:10 | 38.85652 | -112.23862 | 35142 ft | 480 kts | 44° |
| 2026-04-30 21:10 | 38.89830 | -112.17249 | 35138 ft | 479 kts | 44° |
| 2026-04-30 21:11 | 38.94043 | -112.10571 | 35124 ft | 480 kts | 44° |
| 2026-04-30 21:11 | 38.98215 | -112.03949 | 35114 ft | 481 kts | 44° |
| 2026-04-30 21:12 | 39.02404 | -111.97276 | 35113 ft | 480 kts | 44° |
| 2026-04-30 21:12 | 39.06572 | -111.90624 | 35144 ft | 479 kts | 44° |
| 2026-04-30 21:13 | 39.10769 | -111.83921 | 34986 ft | 479 kts | 44° |
| 2026-04-30 21:13 | 39.14997 | -111.77151 | 35065 ft | 482 kts | 44° |
| 2026-04-30 21:14 | 39.19180 | -111.70439 | 35103 ft | 483 kts | 45° |
| 2026-04-30 21:14 | 39.23373 | -111.63686 | 35116 ft | 481 kts | 44° |
| 2026-04-30 21:15 | 39.27549 | -111.56953 | 35112 ft | 481 kts | 44° |
| 2026-04-30 21:15 | 39.31702 | -111.50243 | 35125 ft | 480 kts | 44° |
| 2026-04-30 21:16 | 39.35865 | -111.43510 | 35124 ft | 481 kts | 45° |
| 2026-04-30 21:16 | 39.40030 | -111.36749 | 35127 ft | 480 kts | 45° |
| 2026-04-30 21:17 | 39.44173 | -111.30009 | 35135 ft | 481 kts | 45° |
| 2026-04-30 21:17 | 39.48348 | -111.23210 | 35129 ft | 481 kts | 45° |
| 2026-04-30 21:18 | 39.52493 | -111.16444 | 35129 ft | 481 kts | 45° |
| 2026-04-30 21:18 | 39.56618 | -111.09689 | 35144 ft | 480 kts | 45° |
| 2026-04-30 21:19 | 39.60740 | -111.02935 | 35119 ft | 481 kts | 45° |
| 2026-04-30 21:19 | 39.64886 | -110.96123 | 35109 ft | 482 kts | 46° |
| 2026-04-30 21:20 | 39.68997 | -110.89349 | 35117 ft | 479 kts | 46° |
| 2026-04-30 21:20 | 39.73109 | -110.82562 | 35135 ft | 481 kts | 46° |
| 2026-04-30 21:21 | 39.77225 | -110.75754 | 35264 ft | 479 kts | 46° |
| 2026-04-30 21:22 | 39.83359 | -110.65583 | 35170 ft | 477 kts | 46° |
| 2026-04-30 21:23 | 39.91526 | -110.51984 | 35143 ft | 478 kts | 46° |
| 2026-04-30 21:23 | 39.97625 | -110.41793 | 35141 ft | 478 kts | 46° |
| 2026-04-30 21:24 | 40.01696 | -110.34974 | 35141 ft | 477 kts | 47° |
| 2026-04-30 21:24 | 40.05761 | -110.28146 | 35147 ft | 479 kts | 47° |
| 2026-04-30 21:25 | 40.11861 | -110.17866 | 35136 ft | 478 kts | 47° |
| 2026-04-30 21:26 | 40.18112 | -110.07800 | 35154 ft | 474 kts | 44° |
| 2026-04-30 21:27 | 40.24551 | -109.98018 | 35141 ft | 475 kts | 45° |
| 2026-04-30 21:27 | 40.28829 | -109.91491 | 35152 ft | 474 kts | 45° |
| 2026-04-30 21:28 | 40.35224 | -109.81690 | 35161 ft | 473 kts | 45° |
| 2026-04-30 21:29 | 40.41611 | -109.71866 | 35145 ft | 472 kts | 45° |
| 2026-04-30 21:30 | 40.52226 | -109.55471 | 35152 ft | 471 kts | 45° |
| 2026-04-30 21:31 | 40.62766 | -109.39108 | 35147 ft | 472 kts | 45° |
| 2026-04-30 21:32 | 40.69122 | -109.29198 | 35145 ft | 472 kts | 46° |
| 2026-04-30 21:32 | 40.73325 | -109.22624 | 35162 ft | 471 kts | 46° |
| 2026-04-30 21:33 | 40.79606 | -109.12779 | 35146 ft | 469 kts | 46° |
| 2026-04-30 21:34 | 40.83805 | -109.06179 | 35147 ft | 469 kts | 46° |
| 2026-04-30 21:34 | 40.90065 | -108.96308 | 35147 ft | 469 kts | 46° |
| 2026-04-30 21:35 | 40.94224 | -108.89737 | 35156 ft | 468 kts | 46° |
| 2026-04-30 21:35 | 40.98384 | -108.83147 | 35148 ft | 468 kts | 46° |
| 2026-04-30 21:36 | 41.02537 | -108.76553 | 35162 ft | 468 kts | 46° |
| 2026-04-30 21:37 | 41.10883 | -108.63261 | 35163 ft | 468 kts | 46° |
| 2026-04-30 21:37 | 41.15030 | -108.56638 | 35155 ft | 468 kts | 46° |
| 2026-04-30 21:38 | 41.19166 | -108.50014 | 35160 ft | 468 kts | 47° |
| 2026-04-30 21:38 | 41.23294 | -108.43388 | 35157 ft | 468 kts | 46° |
| 2026-04-30 21:39 | 41.27427 | -108.36739 | 35154 ft | 468 kts | 46° |
| 2026-04-30 21:39 | 41.31559 | -108.30081 | 35149 ft | 468 kts | 47° |
| 2026-04-30 21:40 | 41.35679 | -108.23425 | 35144 ft | 468 kts | 47° |
| 2026-04-30 21:40 | 41.39787 | -108.16774 | 35137 ft | 469 kts | 47° |
| 2026-04-30 21:41 | 41.43917 | -108.10072 | 35140 ft | 468 kts | 47° |
| 2026-04-30 21:41 | 41.48032 | -108.03382 | 35139 ft | 468 kts | 47° |
| 2026-04-30 21:42 | 41.52137 | -107.96693 | 35143 ft | 468 kts | 47° |
| 2026-04-30 21:42 | 41.56227 | -107.90012 | 35149 ft | 468 kts | 47° |
| 2026-04-30 21:43 | 41.60327 | -107.83302 | 35148 ft | 467 kts | 47° |
| 2026-04-30 21:43 | 41.64435 | -107.76561 | 35146 ft | 467 kts | 47° |
| 2026-04-30 21:44 | 41.68502 | -107.69872 | 35150 ft | 467 kts | 47° |
| 2026-04-30 21:44 | 41.72602 | -107.63117 | 35152 ft | 467 kts | 47° |
| 2026-04-30 21:45 | 41.76955 | -107.56747 | 35153 ft | 464 kts | 40° |
| 2026-04-30 21:45 | 41.81718 | -107.51028 | 35160 ft | 462 kts | 37° |
| 2026-04-30 21:46 | 41.86588 | -107.45416 | 35161 ft | 462 kts | 37° |
| 2026-04-30 21:46 | 41.91447 | -107.39791 | 35162 ft | 461 kts | 37° |
| 2026-04-30 21:47 | 41.96275 | -107.34175 | 35163 ft | 462 kts | 37° |
| 2026-04-30 21:47 | 42.01145 | -107.28495 | 35158 ft | 463 kts | 38° |
| 2026-04-30 21:48 | 42.06004 | -107.22813 | 35152 ft | 463 kts | 38° |
| 2026-04-30 21:48 | 42.10843 | -107.17143 | 35147 ft | 462 kts | 38° |
| 2026-04-30 21:49 | 42.15667 | -107.11480 | 35150 ft | 461 kts | 38° |
| 2026-04-30 21:49 | 42.20479 | -107.05817 | 35141 ft | 461 kts | 38° |
| 2026-04-30 21:50 | 42.25319 | -107.00111 | 35154 ft | 461 kts | 38° |
| 2026-04-30 21:50 | 42.30097 | -106.94421 | 35153 ft | 462 kts | 40° |
| 2026-04-30 21:51 | 42.34272 | -106.87801 | 35141 ft | 468 kts | 53° |
| 2026-04-30 21:51 | 42.37325 | -106.80036 | 35147 ft | 473 kts | 66° |
| 2026-04-30 21:52 | 42.39130 | -106.71484 | 35137 ft | 476 kts | 76° |
| 2026-04-30 21:52 | 42.40448 | -106.62746 | 35135 ft | 477 kts | 76° |
| 2026-04-30 21:53 | 42.41775 | -106.53976 | 35134 ft | 477 kts | 76° |
| 2026-04-30 21:53 | 42.43122 | -106.45207 | 35127 ft | 477 kts | 76° |
| 2026-04-30 21:54 | 42.44461 | -106.36495 | 35125 ft | 477 kts | 76° |
| 2026-04-30 21:54 | 42.45805 | -106.27723 | 35125 ft | 477 kts | 77° |
| 2026-04-30 21:55 | 42.47140 | -106.18958 | 35106 ft | 478 kts | 77° |
| 2026-04-30 21:55 | 42.48471 | -106.10165 | 35111 ft | 478 kts | 76° |
| 2026-04-30 21:56 | 42.50125 | -106.01505 | 35099 ft | 476 kts | 70° |
| 2026-04-30 21:56 | 42.52499 | -105.93198 | 35105 ft | 473 kts | 63° |
| 2026-04-30 21:57 | 42.55403 | -105.85229 | 35103 ft | 473 kts | 60° |
| 2026-04-30 21:57 | 42.58344 | -105.77335 | 35104 ft | 473 kts | 60° |
| 2026-04-30 21:58 | 42.61283 | -105.69383 | 35115 ft | 473 kts | 60° |
| 2026-04-30 21:58 | 42.64222 | -105.61384 | 35107 ft | 474 kts | 60° |
| 2026-04-30 21:59 | 42.67123 | -105.53454 | 35133 ft | 473 kts | 60° |
| 2026-04-30 22:00 | 42.71497 | -105.41449 | 35149 ft | 473 kts | 60° |
| 2026-04-30 22:00 | 42.75854 | -105.29446 | 35146 ft | 473 kts | 61° |
| 2026-04-30 22:01 | 42.78738 | -105.21467 | 35129 ft | 474 kts | 61° |
| 2026-04-30 22:01 | 42.81639 | -105.13421 | 35123 ft | 474 kts | 61° |
| 2026-04-30 22:02 | 42.84527 | -105.05385 | 35132 ft | 474 kts | 61° |
| 2026-04-30 22:02 | 42.87407 | -104.97352 | 35113 ft | 474 kts | 61° |
| 2026-04-30 22:03 | 42.90272 | -104.89333 | 35120 ft | 473 kts | 61° |
| 2026-04-30 22:03 | 42.93145 | -104.81272 | 35102 ft | 473 kts | 61° |
| 2026-04-30 22:04 | 42.96011 | -104.73206 | 35099 ft | 473 kts | 60° |
| 2026-04-30 22:05 | 43.00291 | -104.61118 | 35106 ft | 473 kts | 60° |
| 2026-04-30 22:05 | 43.03124 | -104.53091 | 35093 ft | 473 kts | 61° |
| 2026-04-30 22:06 | 43.05970 | -104.44997 | 35100 ft | 473 kts | 61° |
| 2026-04-30 22:06 | 43.10234 | -104.32826 | 35095 ft | 473 kts | 61° |
| 2026-04-30 22:07 | 43.13068 | -104.24713 | 35092 ft | 474 kts | 61° |
| 2026-04-30 22:07 | 43.15900 | -104.16582 | 35094 ft | 475 kts | 61° |
| 2026-04-30 22:08 | 43.18720 | -104.08457 | 35092 ft | 475 kts | 61° |
| 2026-04-30 22:08 | 43.21538 | -104.00311 | 35090 ft | 475 kts | 61° |
| 2026-04-30 22:09 | 43.24352 | -103.92158 | 35099 ft | 475 kts | 61° |
| 2026-04-30 22:09 | 43.27164 | -103.83981 | 35096 ft | 474 kts | 61° |
| 2026-04-30 22:10 | 43.29961 | -103.75826 | 35086 ft | 475 kts | 61° |
| 2026-04-30 22:10 | 43.32751 | -103.67670 | 35092 ft | 474 kts | 61° |
| 2026-04-30 22:11 | 43.36937 | -103.55382 | 35090 ft | 474 kts | 61° |
| 2026-04-30 22:12 | 43.39727 | -103.47163 | 35080 ft | 475 kts | 61° |
| 2026-04-30 22:12 | 43.42503 | -103.38959 | 35092 ft | 475 kts | 61° |
| 2026-04-30 22:13 | 43.45267 | -103.30765 | 35078 ft | 476 kts | 62° |
| 2026-04-30 22:13 | 43.48029 | -103.22551 | 35077 ft | 476 kts | 61° |
| 2026-04-30 22:14 | 43.50804 | -103.14277 | 35080 ft | 476 kts | 61° |
| 2026-04-30 22:14 | 43.53559 | -103.06036 | 35079 ft | 476 kts | 61° |
| 2026-04-30 22:15 | 43.56302 | -102.97810 | 35074 ft | 476 kts | 62° |
| 2026-04-30 22:15 | 43.59062 | -102.89497 | 35074 ft | 476 kts | 61° |
| 2026-04-30 22:16 | 43.61787 | -102.81271 | 35065 ft | 475 kts | 61° |
| 2026-04-30 22:17 | 43.67242 | -102.64720 | 35074 ft | 475 kts | 61° |
| 2026-04-30 22:17 | 43.71307 | -102.52330 | 35077 ft | 474 kts | 61° |
| 2026-04-30 22:18 | 43.75382 | -102.39851 | 35075 ft | 475 kts | 61° |
| 2026-04-30 22:19 | 43.79422 | -102.27415 | 35074 ft | 474 kts | 62° |
| 2026-04-30 22:20 | 43.83426 | -102.15028 | 35081 ft | 473 kts | 62° |
| 2026-04-30 22:20 | 43.87436 | -102.02576 | 35076 ft | 473 kts | 62° |
| 2026-04-30 22:21 | 43.90105 | -101.94245 | 35079 ft | 472 kts | 62° |
| 2026-04-30 22:21 | 43.92755 | -101.85949 | 35072 ft | 472 kts | 62° |
| 2026-04-30 22:22 | 43.95404 | -101.77634 | 35082 ft | 472 kts | 62° |
| 2026-04-30 22:22 | 43.98036 | -101.69338 | 35100 ft | 471 kts | 62° |
| 2026-04-30 22:23 | 44.00648 | -101.61088 | 35103 ft | 470 kts | 62° |
| 2026-04-30 22:23 | 44.03271 | -101.52779 | 35100 ft | 471 kts | 62° |
| 2026-04-30 22:24 | 44.05886 | -101.44466 | 35095 ft | 471 kts | 62° |
| 2026-04-30 22:24 | 44.08492 | -101.36154 | 35084 ft | 471 kts | 62° |
| 2026-04-30 22:25 | 44.11090 | -101.27840 | 35072 ft | 470 kts | 62° |
| 2026-04-30 22:25 | 44.13678 | -101.19531 | 35068 ft | 470 kts | 62° |
| 2026-04-30 22:26 | 44.17555 | -101.07031 | 35062 ft | 470 kts | 62° |
| 2026-04-30 22:27 | 44.20115 | -100.98747 | 35065 ft | 469 kts | 62° |
| 2026-04-30 22:27 | 44.23975 | -100.86209 | 35062 ft | 469 kts | 62° |
| 2026-04-30 22:28 | 44.27798 | -100.73721 | 35062 ft | 468 kts | 62° |
| 2026-04-30 22:29 | 44.32863 | -100.57090 | 35060 ft | 469 kts | 62° |
| 2026-04-30 22:31 | 44.41698 | -100.27819 | 35078 ft | 469 kts | 63° |
| 2026-04-30 22:32 | 44.47954 | -100.06866 | 35071 ft | 469 kts | 64° |
| 2026-04-30 22:33 | 44.50792 | -99.93715 | 35062 ft | 474 kts | 75° |
| 2026-04-30 22:33 | 44.51969 | -99.84628 | 35064 ft | 476 kts | 76° |
| 2026-04-30 22:35 | 44.54778 | -99.61916 | 35063 ft | 476 kts | 76° |
| 2026-04-30 22:36 | 44.57579 | -99.39143 | 35059 ft | 475 kts | 76° |
| 2026-04-30 22:37 | 44.59785 | -99.20946 | 35054 ft | 475 kts | 77° |
| 2026-04-30 22:38 | 44.61964 | -99.02718 | 35062 ft | 476 kts | 77° |
| 2026-04-30 22:39 | 44.63575 | -98.89062 | 35061 ft | 475 kts | 77° |
| 2026-04-30 22:40 | 44.66748 | -98.61764 | 35059 ft | 475 kts | 77° |
| 2026-04-30 22:41 | 44.69347 | -98.38944 | 35060 ft | 475 kts | 77° |
| 2026-04-30 22:43 | 44.72409 | -98.11506 | 35062 ft | 475 kts | 78° |
| 2026-04-30 22:44 | 44.74412 | -97.93204 | 35060 ft | 474 kts | 78° |
| 2026-04-30 22:45 | 44.77359 | -97.65774 | 35050 ft | 475 kts | 78° |
| 2026-04-30 22:47 | 44.80243 | -97.38275 | 35046 ft | 475 kts | 78° |
| 2026-04-30 22:48 | 44.82135 | -97.19887 | 35051 ft | 475 kts | 79° |
| 2026-04-30 22:49 | 44.84904 | -96.92384 | 35048 ft | 476 kts | 79° |
| 2026-04-30 22:51 | 44.87614 | -96.64802 | 35039 ft | 475 kts | 79° |
| 2026-04-30 22:52 | 44.88943 | -96.51009 | 35046 ft | 475 kts | 79° |
| 2026-04-30 22:53 | 44.90688 | -96.32636 | 35060 ft | 475 kts | 80° |
| 2026-04-30 22:53 | 44.91976 | -96.18837 | 35071 ft | 476 kts | 79° |
| 2026-04-30 22:55 | 44.94093 | -95.95789 | 35065 ft | 476 kts | 80° |
| 2026-04-30 22:56 | 44.95757 | -95.77281 | 35068 ft | 476 kts | 80° |
| 2026-04-30 22:57 | 44.97787 | -95.54223 | 35070 ft | 475 kts | 80° |
| 2026-04-30 22:58 | 44.99381 | -95.35732 | 35064 ft | 476 kts | 80° |
| 2026-04-30 22:59 | 45.01714 | -95.07986 | 35068 ft | 475 kts | 81° |